sensor_id;sensor_type;location;lat;lon;timestamp;P1;durP1;ratioP1;P2;durP2;ratioP2
2362;SDS011;64265;51.664;7.626;2022-12-24T00:00:54;16.23;;;5.45;;
2362;SDS011;64265;51.664;7.626;2022-12-24T00:03:22;13.50;;;5.18;;
2362;SDS011;64265;51.664;7.626;2022-12-24T00:05:49;18.75;;;5.18;;
2362;SDS011;64265;51.664;7.626;2022-12-24T00:08:15;15.52;;;4.85;;
2362;SDS011;64265;51.664;7.626;2022-12-24T00:10:42;21.42;;;7.22;;
2362;SDS011;64265;51.664;7.626;2022-12-24T00:13:09;10.23;;;4.55;;
2362;SDS011;64265;51.664;7.626;2022-12-24T00:15:37;13.93;;;4.68;;
2362;SDS011;64265;51.664;7.626;2022-12-24T00:18:04;12.43;;;4.72;;
2362;SDS011;64265;51.664;7.626;2022-12-24T00:20:30;8.05;;;4.13;;
2362;SDS011;64265;51.664;7.626;2022-12-24T00:22:57;12.35;;;5.82;;
2362;SDS011;64265;51.664;7.626;2022-12-24T00:25:23;13.63;;;5.45;;
2362;SDS011;64265;51.664;7.626;2022-12-24T00:27:50;13.40;;;5.13;;
2362;SDS011;64265;51.664;7.626;2022-12-24T00:30:17;13.63;;;5.90;;
2362;SDS011;64265;51.664;7.626;2022-12-24T00:32:45;16.08;;;5.70;;
2362;SDS011;64265;51.664;7.626;2022-12-24T00:35:12;9.85;;;4.35;;
2362;SDS011;64265;51.664;7.626;2022-12-24T00:37:39;12.43;;;5.60;;
2362;SDS011;64265;51.664;7.626;2022-12-24T00:40:06;12.90;;;4.85;;
2362;SDS011;64265;51.664;7.626;2022-12-24T00:42:33;12.57;;;4.57;;
2362;SDS011;64265;51.664;7.626;2022-12-24T00:45:00;16.02;;;4.28;;
2362;SDS011;64265;51.664;7.626;2022-12-24T00:47:27;16.55;;;4.63;;
2362;SDS011;64265;51.664;7.626;2022-12-24T00:49:55;9.07;;;3.90;;
2362;SDS011;64265;51.664;7.626;2022-12-24T00:52:21;13.32;;;4.25;;
2362;SDS011;64265;51.664;7.626;2022-12-24T00:54:48;10.35;;;4.78;;
2362;SDS011;64265;51.664;7.626;2022-12-24T00:57:15;8.23;;;4.68;;
2362;SDS011;64265;51.664;7.626;2022-12-24T00:59:42;14.02;;;3.88;;
2362;SDS011;64265;51.664;7.626;2022-12-24T01:02:09;8.88;;;4.70;;
2362;SDS011;64265;51.664;7.626;2022-12-24T01:04:35;5.63;;;3.60;;
2362;SDS011;64265;51.664;7.626;2022-12-24T01:07:21;14.07;;;3.80;;
2362;SDS011;64265;51.664;7.626;2022-12-24T01:09:48;8.38;;;3.80;;
2362;SDS011;64265;51.664;7.626;2022-12-24T01:12:14;7.03;;;4.10;;
2362;SDS011;64265;51.664;7.626;2022-12-24T01:14:41;16.42;;;4.18;;
2362;SDS011;64265;51.664;7.626;2022-12-24T01:17:08;9.25;;;4.28;;
2362;SDS011;64265;51.664;7.626;2022-12-24T01:19:34;9.23;;;3.45;;
2362;SDS011;64265;51.664;7.626;2022-12-24T01:22:01;8.43;;;3.97;;
2362;SDS011;64265;51.664;7.626;2022-12-24T01:24:29;9.70;;;3.50;;
2362;SDS011;64265;51.664;7.626;2022-12-24T01:26:56;11.82;;;3.50;;
2362;SDS011;64265;51.664;7.626;2022-12-24T01:29:22;8.70;;;3.97;;
2362;SDS011;64265;51.664;7.626;2022-12-24T01:31:49;7.85;;;4.30;;
2362;SDS011;64265;51.664;7.626;2022-12-24T01:34:16;11.25;;;3.65;;
2362;SDS011;64265;51.664;7.626;2022-12-24T01:36:42;10.13;;;4.30;;
2362;SDS011;64265;51.664;7.626;2022-12-24T01:39:09;5.20;;;2.90;;
2362;SDS011;64265;51.664;7.626;2022-12-24T01:41:37;7.32;;;3.58;;
2362;SDS011;64265;51.664;7.626;2022-12-24T01:44:22;6.50;;;3.80;;
2362;SDS011;64265;51.664;7.626;2022-12-24T01:46:52;8.73;;;3.00;;
2362;SDS011;64265;51.664;7.626;2022-12-24T01:49:22;6.68;;;3.70;;
2362;SDS011;64265;51.664;7.626;2022-12-24T01:51:50;7.82;;;3.80;;
2362;SDS011;64265;51.664;7.626;2022-12-24T01:54:21;5.13;;;3.40;;
2362;SDS011;64265;51.664;7.626;2022-12-24T01:56:53;7.88;;;3.55;;
2362;SDS011;64265;51.664;7.626;2022-12-24T01:59:23;10.52;;;3.40;;
2362;SDS011;64265;51.664;7.626;2022-12-24T02:01:50;7.05;;;2.75;;
2362;SDS011;64265;51.664;7.626;2022-12-24T02:04:22;13.18;;;3.05;;
2362;SDS011;64265;51.664;7.626;2022-12-24T02:06:55;11.13;;;4.10;;
2362;SDS011;64265;51.664;7.626;2022-12-24T02:09:22;8.38;;;3.50;;
2362;SDS011;64265;51.664;7.626;2022-12-24T02:11:49;12.00;;;2.97;;
2362;SDS011;64265;51.664;7.626;2022-12-24T02:14:17;4.80;;;2.50;;
2362;SDS011;64265;51.664;7.626;2022-12-24T02:16:46;8.90;;;4.60;;
2362;SDS011;64265;51.664;7.626;2022-12-24T02:19:25;10.65;;;3.13;;
2362;SDS011;64265;51.664;7.626;2022-12-24T02:22:11;5.95;;;2.78;;
2362;SDS011;64265;51.664;7.626;2022-12-24T02:24:51;5.72;;;3.35;;
2362;SDS011;64265;51.664;7.626;2022-12-24T02:27:41;8.43;;;2.90;;
2362;SDS011;64265;51.664;7.626;2022-12-24T02:30:18;3.67;;;2.60;;
2362;SDS011;64265;51.664;7.626;2022-12-24T02:32:51;5.97;;;3.22;;
2362;SDS011;64265;51.664;7.626;2022-12-24T02:35:28;7.25;;;3.53;;
2362;SDS011;64265;51.664;7.626;2022-12-24T02:38:02;5.65;;;3.22;;
2362;SDS011;64265;51.664;7.626;2022-12-24T02:40:35;5.70;;;2.67;;
2362;SDS011;64265;51.664;7.626;2022-12-24T02:43:07;6.70;;;2.83;;
2362;SDS011;64265;51.664;7.626;2022-12-24T02:45:37;4.15;;;3.00;;
2362;SDS011;64265;51.664;7.626;2022-12-24T02:48:07;5.18;;;2.88;;
2362;SDS011;64265;51.664;7.626;2022-12-24T02:50:35;5.20;;;2.88;;
2362;SDS011;64265;51.664;7.626;2022-12-24T02:53:02;8.00;;;3.22;;
2362;SDS011;64265;51.664;7.626;2022-12-24T02:55:30;4.53;;;2.75;;
2362;SDS011;64265;51.664;7.626;2022-12-24T02:58:09;8.18;;;3.90;;
2362;SDS011;64265;51.664;7.626;2022-12-24T03:00:47;6.93;;;2.85;;
2362;SDS011;64265;51.664;7.626;2022-12-24T03:03:43;5.85;;;2.90;;
2362;SDS011;64265;51.664;7.626;2022-12-24T03:06:22;7.28;;;3.25;;
2362;SDS011;64265;51.664;7.626;2022-12-24T03:09:04;6.28;;;3.83;;
2362;SDS011;64265;51.664;7.626;2022-12-24T03:11:35;6.30;;;3.03;;
2362;SDS011;64265;51.664;7.626;2022-12-24T03:14:08;4.18;;;2.50;;
2362;SDS011;64265;51.664;7.626;2022-12-24T03:16:36;5.65;;;2.92;;
2362;SDS011;64265;51.664;7.626;2022-12-24T03:19:02;5.90;;;2.70;;
2362;SDS011;64265;51.664;7.626;2022-12-24T03:21:30;4.22;;;2.58;;
2362;SDS011;64265;51.664;7.626;2022-12-24T03:23:59;4.55;;;2.70;;
2362;SDS011;64265;51.664;7.626;2022-12-24T03:26:27;6.75;;;2.78;;
2362;SDS011;64265;51.664;7.626;2022-12-24T03:28:57;4.10;;;2.30;;
2362;SDS011;64265;51.664;7.626;2022-12-24T03:31:24;9.68;;;2.90;;
2362;SDS011;64265;51.664;7.626;2022-12-24T03:33:52;5.50;;;2.97;;
2362;SDS011;64265;51.664;7.626;2022-12-24T03:36:19;4.63;;;2.60;;
2362;SDS011;64265;51.664;7.626;2022-12-24T03:38:45;5.68;;;2.75;;
2362;SDS011;64265;51.664;7.626;2022-12-24T03:41:12;5.70;;;3.17;;
2362;SDS011;64265;51.664;7.626;2022-12-24T03:43:39;5.55;;;2.58;;
2362;SDS011;64265;51.664;7.626;2022-12-24T03:46:06;5.88;;;2.60;;
2362;SDS011;64265;51.664;7.626;2022-12-24T03:48:33;6.45;;;2.75;;
2362;SDS011;64265;51.664;7.626;2022-12-24T03:51:02;5.95;;;3.03;;
2362;SDS011;64265;51.664;7.626;2022-12-24T03:53:29;3.53;;;2.63;;
2362;SDS011;64265;51.664;7.626;2022-12-24T03:55:56;4.60;;;2.40;;
2362;SDS011;64265;51.664;7.626;2022-12-24T03:58:23;7.50;;;2.67;;
2362;SDS011;64265;51.664;7.626;2022-12-24T04:00:51;4.20;;;2.35;;
2362;SDS011;64265;51.664;7.626;2022-12-24T04:03:18;4.65;;;2.67;;
2362;SDS011;64265;51.664;7.626;2022-12-24T04:05:45;4.88;;;2.42;;
2362;SDS011;64265;51.664;7.626;2022-12-24T04:08:13;5.20;;;3.35;;
2362;SDS011;64265;51.664;7.626;2022-12-24T04:10:40;4.85;;;2.90;;
2362;SDS011;64265;51.664;7.626;2022-12-24T04:13:06;3.95;;;1.80;;
2362;SDS011;64265;51.664;7.626;2022-12-24T04:15:33;2.95;;;2.30;;
2362;SDS011;64265;51.664;7.626;2022-12-24T04:18:00;6.75;;;3.13;;
2362;SDS011;64265;51.664;7.626;2022-12-24T04:20:26;3.00;;;1.90;;
2362;SDS011;64265;51.664;7.626;2022-12-24T04:22:53;5.70;;;2.42;;
2362;SDS011;64265;51.664;7.626;2022-12-24T04:25:21;6.10;;;3.00;;
2362;SDS011;64265;51.664;7.626;2022-12-24T04:27:47;5.20;;;2.60;;
2362;SDS011;64265;51.664;7.626;2022-12-24T04:30:14;3.53;;;2.15;;
2362;SDS011;64265;51.664;7.626;2022-12-24T04:32:41;3.08;;;2.10;;
2362;SDS011;64265;51.664;7.626;2022-12-24T04:35:08;4.78;;;1.92;;
2362;SDS011;64265;51.664;7.626;2022-12-24T04:37:35;1.95;;;1.75;;
2362;SDS011;64265;51.664;7.626;2022-12-24T04:40:01;4.85;;;2.63;;
2362;SDS011;64265;51.664;7.626;2022-12-24T04:42:29;6.57;;;2.97;;
2362;SDS011;64265;51.664;7.626;2022-12-24T04:44:56;3.50;;;2.10;;
2362;SDS011;64265;51.664;7.626;2022-12-24T04:47:23;3.50;;;1.90;;
2362;SDS011;64265;51.664;7.626;2022-12-24T04:49:49;3.97;;;2.50;;
2362;SDS011;64265;51.664;7.626;2022-12-24T04:52:16;8.93;;;2.70;;
2362;SDS011;64265;51.664;7.626;2022-12-24T04:54:43;4.15;;;2.60;;
2362;SDS011;64265;51.664;7.626;2022-12-24T04:57:09;5.15;;;2.20;;
2362;SDS011;64265;51.664;7.626;2022-12-24T04:59:37;3.25;;;1.95;;
2362;SDS011;64265;51.664;7.626;2022-12-24T05:02:04;3.63;;;2.03;;
2362;SDS011;64265;51.664;7.626;2022-12-24T05:04:31;2.70;;;2.00;;
2362;SDS011;64265;51.664;7.626;2022-12-24T05:06:57;3.80;;;2.00;;
2362;SDS011;64265;51.664;7.626;2022-12-24T05:09:24;3.80;;;2.20;;
2362;SDS011;64265;51.664;7.626;2022-12-24T05:11:50;3.15;;;2.20;;
2362;SDS011;64265;51.664;7.626;2022-12-24T05:14:17;4.60;;;2.25;;
2362;SDS011;64265;51.664;7.626;2022-12-24T05:16:45;3.15;;;1.75;;
2362;SDS011;64265;51.664;7.626;2022-12-24T05:19:12;2.70;;;1.42;;
2362;SDS011;64265;51.664;7.626;2022-12-24T05:21:38;5.43;;;2.47;;
2362;SDS011;64265;51.664;7.626;2022-12-24T05:24:05;3.00;;;2.15;;
2362;SDS011;64265;51.664;7.626;2022-12-24T05:26:50;3.67;;;1.70;;
2362;SDS011;64265;51.664;7.626;2022-12-24T05:29:19;3.78;;;2.22;;
2362;SDS011;64265;51.664;7.626;2022-12-24T05:31:47;3.00;;;1.90;;
2362;SDS011;64265;51.664;7.626;2022-12-24T05:34:15;2.72;;;2.53;;
2362;SDS011;64265;51.664;7.626;2022-12-24T05:36:42;5.75;;;2.60;;
2362;SDS011;64265;51.664;7.626;2022-12-24T05:39:09;2.40;;;2.00;;
2362;SDS011;64265;51.664;7.626;2022-12-24T05:41:39;2.50;;;1.75;;
2362;SDS011;64265;51.664;7.626;2022-12-24T05:44:05;3.05;;;1.80;;
2362;SDS011;64265;51.664;7.626;2022-12-24T05:46:32;2.70;;;1.90;;
2362;SDS011;64265;51.664;7.626;2022-12-24T05:49:00;3.00;;;1.52;;
2362;SDS011;64265;51.664;7.626;2022-12-24T05:51:27;2.28;;;1.58;;
2362;SDS011;64265;51.664;7.626;2022-12-24T05:53:53;4.50;;;1.83;;
2362;SDS011;64265;51.664;7.626;2022-12-24T05:56:21;3.50;;;1.70;;
2362;SDS011;64265;51.664;7.626;2022-12-24T05:58:49;2.30;;;1.90;;
2362;SDS011;64265;51.664;7.626;2022-12-24T06:01:17;2.75;;;1.70;;
2362;SDS011;64265;51.664;7.626;2022-12-24T06:03:44;2.33;;;2.08;;
2362;SDS011;64265;51.664;7.626;2022-12-24T06:06:15;2.63;;;1.95;;
2362;SDS011;64265;51.664;7.626;2022-12-24T06:08:44;2.88;;;1.60;;
2362;SDS011;64265;51.664;7.626;2022-12-24T06:11:12;3.97;;;2.25;;
2362;SDS011;64265;51.664;7.626;2022-12-24T06:13:41;5.20;;;2.20;;
2362;SDS011;64265;51.664;7.626;2022-12-24T06:16:08;2.83;;;1.90;;
2362;SDS011;64265;51.664;7.626;2022-12-24T06:18:37;3.78;;;1.88;;
2362;SDS011;64265;51.664;7.626;2022-12-24T06:21:04;2.47;;;1.70;;
2362;SDS011;64265;51.664;7.626;2022-12-24T06:23:33;2.72;;;1.60;;
2362;SDS011;64265;51.664;7.626;2022-12-24T06:26:02;3.53;;;2.58;;
2362;SDS011;64265;51.664;7.626;2022-12-24T06:28:30;2.75;;;1.33;;
2362;SDS011;64265;51.664;7.626;2022-12-24T06:30:58;5.07;;;2.22;;
2362;SDS011;64265;51.664;7.626;2022-12-24T06:33:25;2.08;;;1.70;;
2362;SDS011;64265;51.664;7.626;2022-12-24T06:35:52;2.90;;;1.92;;
2362;SDS011;64265;51.664;7.626;2022-12-24T06:38:19;3.33;;;2.42;;
2362;SDS011;64265;51.664;7.626;2022-12-24T06:40:47;2.42;;;2.22;;
2362;SDS011;64265;51.664;7.626;2022-12-24T06:43:13;2.50;;;1.75;;
2362;SDS011;64265;51.664;7.626;2022-12-24T06:45:43;3.85;;;1.90;;
2362;SDS011;64265;51.664;7.626;2022-12-24T06:48:10;3.53;;;1.85;;
2362;SDS011;64265;51.664;7.626;2022-12-24T06:50:37;2.65;;;1.67;;
2362;SDS011;64265;51.664;7.626;2022-12-24T06:53:04;3.53;;;1.90;;
2362;SDS011;64265;51.664;7.626;2022-12-24T06:55:31;4.22;;;2.00;;
2362;SDS011;64265;51.664;7.626;2022-12-24T06:57:59;3.30;;;1.75;;
2362;SDS011;64265;51.664;7.626;2022-12-24T07:00:25;2.40;;;1.60;;
2362;SDS011;64265;51.664;7.626;2022-12-24T07:02:52;2.75;;;1.70;;
2362;SDS011;64265;51.664;7.626;2022-12-24T07:05:19;3.00;;;1.58;;
2362;SDS011;64265;51.664;7.626;2022-12-24T07:07:45;2.72;;;1.70;;
2362;SDS011;64265;51.664;7.626;2022-12-24T07:10:13;2.97;;;1.73;;
2362;SDS011;64265;51.664;7.626;2022-12-24T07:12:42;2.75;;;1.90;;
2362;SDS011;64265;51.664;7.626;2022-12-24T07:15:11;1.65;;;1.42;;
2362;SDS011;64265;51.664;7.626;2022-12-24T07:17:38;3.85;;;1.60;;
2362;SDS011;64265;51.664;7.626;2022-12-24T07:20:06;2.17;;;1.55;;
2362;SDS011;64265;51.664;7.626;2022-12-24T07:22:34;1.55;;;1.40;;
2362;SDS011;64265;51.664;7.626;2022-12-24T07:25:00;2.00;;;1.30;;
2362;SDS011;64265;51.664;7.626;2022-12-24T07:27:27;2.65;;;1.60;;
2362;SDS011;64265;51.664;7.626;2022-12-24T07:29:53;2.03;;;1.50;;
2362;SDS011;64265;51.664;7.626;2022-12-24T07:32:22;1.63;;;1.27;;
2362;SDS011;64265;51.664;7.626;2022-12-24T07:34:48;2.10;;;1.42;;
2362;SDS011;64265;51.664;7.626;2022-12-24T07:37:15;2.47;;;1.45;;
2362;SDS011;64265;51.664;7.626;2022-12-24T07:39:42;1.70;;;1.55;;
2362;SDS011;64265;51.664;7.626;2022-12-24T07:42:08;3.50;;;1.80;;
2362;SDS011;64265;51.664;7.626;2022-12-24T07:44:35;5.03;;;1.30;;
2362;SDS011;64265;51.664;7.626;2022-12-24T07:47:02;3.97;;;2.38;;
2362;SDS011;64265;51.664;7.626;2022-12-24T07:49:30;1.98;;;1.25;;
2362;SDS011;64265;51.664;7.626;2022-12-24T07:51:56;2.10;;;1.35;;
2362;SDS011;64265;51.664;7.626;2022-12-24T07:54:23;2.88;;;1.80;;
2362;SDS011;64265;51.664;7.626;2022-12-24T07:56:50;2.05;;;1.40;;
2362;SDS011;64265;51.664;7.626;2022-12-24T07:59:16;2.83;;;1.23;;
2362;SDS011;64265;51.664;7.626;2022-12-24T08:01:43;2.88;;;1.63;;
2362;SDS011;64265;51.664;7.626;2022-12-24T08:04:10;2.38;;;1.40;;
2362;SDS011;64265;51.664;7.626;2022-12-24T08:06:38;2.63;;;1.40;;
2362;SDS011;64265;51.664;7.626;2022-12-24T08:09:05;2.10;;;1.30;;
2362;SDS011;64265;51.664;7.626;2022-12-24T08:11:32;2.35;;;1.25;;
2362;SDS011;64265;51.664;7.626;2022-12-24T08:13:59;3.47;;;1.90;;
2362;SDS011;64265;51.664;7.626;2022-12-24T08:16:25;1.67;;;1.30;;
2362;SDS011;64265;51.664;7.626;2022-12-24T08:18:52;2.05;;;1.25;;
2362;SDS011;64265;51.664;7.626;2022-12-24T08:21:19;2.38;;;1.45;;
2362;SDS011;64265;51.664;7.626;2022-12-24T08:23:47;2.05;;;1.70;;
2362;SDS011;64265;51.664;7.626;2022-12-24T08:26:13;1.33;;;1.20;;
2362;SDS011;64265;51.664;7.626;2022-12-24T08:28:40;1.95;;;1.40;;
2362;SDS011;64265;51.664;7.626;2022-12-24T08:31:07;2.33;;;1.43;;
2362;SDS011;64265;51.664;7.626;2022-12-24T08:33:33;2.28;;;1.20;;
2362;SDS011;64265;51.664;7.626;2022-12-24T08:36:00;1.85;;;1.35;;
2362;SDS011;64265;51.664;7.626;2022-12-24T08:38:27;2.85;;;1.45;;
2362;SDS011;64265;51.664;7.626;2022-12-24T08:40:55;3.55;;;1.50;;
2362;SDS011;64265;51.664;7.626;2022-12-24T08:43:22;2.40;;;1.50;;
2362;SDS011;64265;51.664;7.626;2022-12-24T08:45:50;2.00;;;1.40;;
2362;SDS011;64265;51.664;7.626;2022-12-24T08:48:17;1.90;;;1.60;;
2362;SDS011;64265;51.664;7.626;2022-12-24T08:50:45;1.50;;;1.20;;
2362;SDS011;64265;51.664;7.626;2022-12-24T08:53:12;1.45;;;1.05;;
2362;SDS011;64265;51.664;7.626;2022-12-24T08:55:39;3.65;;;1.42;;
2362;SDS011;64265;51.664;7.626;2022-12-24T08:58:07;2.20;;;1.27;;
2362;SDS011;64265;51.664;7.626;2022-12-24T09:00:34;2.50;;;1.67;;
2362;SDS011;64265;51.664;7.626;2022-12-24T09:03:01;2.33;;;1.27;;
2362;SDS011;64265;51.664;7.626;2022-12-24T09:05:27;2.88;;;1.48;;
2362;SDS011;64265;51.664;7.626;2022-12-24T09:07:54;3.53;;;1.23;;
2362;SDS011;64265;51.664;7.626;2022-12-24T09:10:21;1.48;;;0.90;;
2362;SDS011;64265;51.664;7.626;2022-12-24T09:12:48;2.30;;;1.38;;
2362;SDS011;64265;51.664;7.626;2022-12-24T09:15:16;1.95;;;1.17;;
2362;SDS011;64265;51.664;7.626;2022-12-24T09:17:43;1.63;;;1.30;;
2362;SDS011;64265;51.664;7.626;2022-12-24T09:20:10;3.03;;;1.25;;
2362;SDS011;64265;51.664;7.626;2022-12-24T09:22:37;2.33;;;1.50;;
2362;SDS011;64265;51.664;7.626;2022-12-24T09:25:05;2.05;;;1.30;;
2362;SDS011;64265;51.664;7.626;2022-12-24T09:27:34;1.50;;;1.20;;
2362;SDS011;64265;51.664;7.626;2022-12-24T09:30:01;1.55;;;1.27;;
2362;SDS011;64265;51.664;7.626;2022-12-24T09:32:29;2.10;;;1.30;;
2362;SDS011;64265;51.664;7.626;2022-12-24T09:34:56;2.22;;;1.40;;
2362;SDS011;64265;51.664;7.626;2022-12-24T09:37:22;2.65;;;1.30;;
2362;SDS011;64265;51.664;7.626;2022-12-24T09:39:49;3.08;;;1.23;;
2362;SDS011;64265;51.664;7.626;2022-12-24T09:42:18;2.35;;;1.67;;
2362;SDS011;64265;51.664;7.626;2022-12-24T09:44:56;3.65;;;2.20;;
2362;SDS011;64265;51.664;7.626;2022-12-24T09:47:31;3.50;;;2.35;;
2362;SDS011;64265;51.664;7.626;2022-12-24T09:50:03;8.18;;;1.65;;
2362;SDS011;64265;51.664;7.626;2022-12-24T09:52:43;2.80;;;1.50;;
2362;SDS011;64265;51.664;7.626;2022-12-24T09:55:13;2.00;;;1.60;;
2362;SDS011;64265;51.664;7.626;2022-12-24T09:57:45;3.97;;;1.65;;
2362;SDS011;64265;51.664;7.626;2022-12-24T10:00:15;5.80;;;1.70;;
2362;SDS011;64265;51.664;7.626;2022-12-24T10:02:47;1.55;;;1.45;;
2362;SDS011;64265;51.664;7.626;2022-12-24T10:05:15;3.63;;;1.42;;
2362;SDS011;64265;51.664;7.626;2022-12-24T10:07:45;2.70;;;1.25;;
2362;SDS011;64265;51.664;7.626;2022-12-24T10:10:20;4.25;;;1.75;;
2362;SDS011;64265;51.664;7.626;2022-12-24T10:12:56;4.25;;;1.70;;
2362;SDS011;64265;51.664;7.626;2022-12-24T10:15:30;1.58;;;1.10;;
2362;SDS011;64265;51.664;7.626;2022-12-24T10:18:07;3.08;;;1.63;;
2362;SDS011;64265;51.664;7.626;2022-12-24T10:20:43;4.20;;;1.67;;
2362;SDS011;64265;51.664;7.626;2022-12-24T10:23:14;2.30;;;1.17;;
2362;SDS011;64265;51.664;7.626;2022-12-24T10:25:47;2.60;;;1.50;;
2362;SDS011;64265;51.664;7.626;2022-12-24T10:28:20;2.25;;;1.23;;
2362;SDS011;64265;51.664;7.626;2022-12-24T10:30:48;3.10;;;1.80;;
2362;SDS011;64265;51.664;7.626;2022-12-24T10:33:25;1.92;;;1.38;;
2362;SDS011;64265;51.664;7.626;2022-12-24T10:35:57;2.88;;;1.70;;
2362;SDS011;64265;51.664;7.626;2022-12-24T10:38:24;3.17;;;1.60;;
2362;SDS011;64265;51.664;7.626;2022-12-24T10:40:51;2.85;;;1.88;;
2362;SDS011;64265;51.664;7.626;2022-12-24T10:43:20;3.97;;;1.90;;
2362;SDS011;64265;51.664;7.626;2022-12-24T10:45:49;5.22;;;1.50;;
2362;SDS011;64265;51.664;7.626;2022-12-24T10:48:20;2.70;;;1.60;;
2362;SDS011;64265;51.664;7.626;2022-12-24T10:50:53;2.90;;;1.33;;
2362;SDS011;64265;51.664;7.626;2022-12-24T10:53:26;1.20;;;1.00;;
2362;SDS011;64265;51.664;7.626;2022-12-24T10:56:02;2.00;;;1.48;;
2362;SDS011;64265;51.664;7.626;2022-12-24T10:58:30;1.73;;;1.30;;
2362;SDS011;64265;51.664;7.626;2022-12-24T11:00:58;2.95;;;1.45;;
2362;SDS011;64265;51.664;7.626;2022-12-24T11:03:27;2.22;;;1.38;;
2362;SDS011;64265;51.664;7.626;2022-12-24T11:06:01;1.50;;;1.25;;
2362;SDS011;64265;51.664;7.626;2022-12-24T11:08:34;1.70;;;1.30;;
2362;SDS011;64265;51.664;7.626;2022-12-24T11:11:02;4.35;;;2.08;;
2362;SDS011;64265;51.664;7.626;2022-12-24T11:13:31;2.40;;;1.30;;
2362;SDS011;64265;51.664;7.626;2022-12-24T11:16:04;2.50;;;1.57;;
2362;SDS011;64265;51.664;7.626;2022-12-24T11:18:33;5.10;;;1.67;;
2362;SDS011;64265;51.664;7.626;2022-12-24T11:21:04;3.42;;;1.40;;
2362;SDS011;64265;51.664;7.626;2022-12-24T11:23:31;2.55;;;1.92;;
2362;SDS011;64265;51.664;7.626;2022-12-24T11:25:58;2.87;;;1.47;;
2362;SDS011;64265;51.664;7.626;2022-12-24T11:28:26;2.63;;;1.27;;
2362;SDS011;64265;51.664;7.626;2022-12-24T11:30:58;2.50;;;1.48;;
2362;SDS011;64265;51.664;7.626;2022-12-24T11:33:28;2.28;;;1.45;;
2362;SDS011;64265;51.664;7.626;2022-12-24T11:35:56;3.88;;;1.80;;
2362;SDS011;64265;51.664;7.626;2022-12-24T11:38:29;2.20;;;1.20;;
2362;SDS011;64265;51.664;7.626;2022-12-24T11:40:58;3.45;;;1.45;;
2362;SDS011;64265;51.664;7.626;2022-12-24T11:43:27;1.98;;;1.13;;
2362;SDS011;64265;51.664;7.626;2022-12-24T11:46:13;3.60;;;1.45;;
2362;SDS011;64265;51.664;7.626;2022-12-24T11:48:42;3.78;;;1.55;;
2362;SDS011;64265;51.664;7.626;2022-12-24T11:51:18;2.23;;;1.50;;
2362;SDS011;64265;51.664;7.626;2022-12-24T11:53:52;3.60;;;1.40;;
2362;SDS011;64265;51.664;7.626;2022-12-24T11:56:31;3.80;;;1.53;;
2362;SDS011;64265;51.664;7.626;2022-12-24T11:59:02;3.00;;;1.10;;
2362;SDS011;64265;51.664;7.626;2022-12-24T12:01:36;1.87;;;1.67;;
2362;SDS011;64265;51.664;7.626;2022-12-24T12:04:05;2.53;;;1.20;;
2362;SDS011;64265;51.664;7.626;2022-12-24T12:06:41;2.27;;;1.47;;
2362;SDS011;64265;51.664;7.626;2022-12-24T12:09:18;2.60;;;1.63;;
2362;SDS011;64265;51.664;7.626;2022-12-24T12:11:47;2.80;;;1.70;;
2362;SDS011;64265;51.664;7.626;2022-12-24T12:14:19;4.30;;;1.20;;
2362;SDS011;64265;51.664;7.626;2022-12-24T12:16:54;1.92;;;1.17;;
2362;SDS011;64265;51.664;7.626;2022-12-24T12:19:29;2.50;;;1.60;;
2362;SDS011;64265;51.664;7.626;2022-12-24T12:22:01;2.97;;;1.27;;
2362;SDS011;64265;51.664;7.626;2022-12-24T12:24:33;2.10;;;1.30;;
2362;SDS011;64265;51.664;7.626;2022-12-24T12:27:04;2.60;;;1.10;;
2362;SDS011;64265;51.664;7.626;2022-12-24T12:29:39;1.83;;;1.27;;
2362;SDS011;64265;51.664;7.626;2022-12-24T12:32:11;1.58;;;1.17;;
2362;SDS011;64265;51.664;7.626;2022-12-24T12:34:42;3.10;;;1.10;;
2362;SDS011;64265;51.664;7.626;2022-12-24T12:37:12;2.20;;;1.70;;
2362;SDS011;64265;51.664;7.626;2022-12-24T12:39:43;3.67;;;1.80;;
2362;SDS011;64265;51.664;7.626;2022-12-24T12:42:11;3.53;;;1.05;;
2362;SDS011;64265;51.664;7.626;2022-12-24T12:44:49;2.00;;;1.30;;
2362;SDS011;64265;51.664;7.626;2022-12-24T12:47:32;3.07;;;1.20;;
2362;SDS011;64265;51.664;7.626;2022-12-24T12:50:21;3.53;;;1.47;;
2362;SDS011;64265;51.664;7.626;2022-12-24T12:52:59;2.87;;;1.50;;
2362;SDS011;64265;51.664;7.626;2022-12-24T12:55:41;1.98;;;1.30;;
2362;SDS011;64265;51.664;7.626;2022-12-24T12:58:16;1.97;;;1.30;;
2362;SDS011;64265;51.664;7.626;2022-12-24T13:00:49;3.10;;;1.55;;
2362;SDS011;64265;51.664;7.626;2022-12-24T13:03:24;4.40;;;1.77;;
2362;SDS011;64265;51.664;7.626;2022-12-24T13:06:11;1.35;;;1.17;;
2362;SDS011;64265;51.664;7.626;2022-12-24T13:08:54;2.88;;;1.42;;
2362;SDS011;64265;51.664;7.626;2022-12-24T13:11:44;2.60;;;1.60;;
2362;SDS011;64265;51.664;7.626;2022-12-24T13:14:27;3.67;;;1.40;;
2362;SDS011;64265;51.664;7.626;2022-12-24T13:17:08;4.70;;;1.30;;
2362;SDS011;64265;51.664;7.626;2022-12-24T13:20:09;1.20;;;1.10;;
2362;SDS011;64265;51.664;7.626;2022-12-24T13:22:47;1.80;;;1.20;;
2362;SDS011;64265;51.664;7.626;2022-12-24T13:25:19;6.60;;;1.67;;
2362;SDS011;64265;51.664;7.626;2022-12-24T13:27:49;3.20;;;1.63;;
2362;SDS011;64265;51.664;7.626;2022-12-24T13:30:32;5.00;;;1.10;;
2362;SDS011;64265;51.664;7.626;2022-12-24T13:33:05;3.72;;;2.42;;
2362;SDS011;64265;51.664;7.626;2022-12-24T13:35:36;5.18;;;2.55;;
2362;SDS011;64265;51.664;7.626;2022-12-24T13:38:29;11.30;;;3.85;;
2362;SDS011;64265;51.664;7.626;2022-12-24T13:44:23;12.10;;;4.30;;
2362;SDS011;64265;51.664;7.626;2022-12-24T13:46:57;10.68;;;3.67;;
2362;SDS011;64265;51.664;7.626;2022-12-24T13:49:32;10.88;;;4.00;;
2362;SDS011;64265;51.664;7.626;2022-12-24T13:52:05;17.73;;;5.05;;
2362;SDS011;64265;51.664;7.626;2022-12-24T13:54:34;15.52;;;5.18;;
2362;SDS011;64265;51.664;7.626;2022-12-24T13:57:02;10.13;;;4.95;;
2362;SDS011;64265;51.664;7.626;2022-12-24T13:59:56;12.45;;;5.20;;
2362;SDS011;64265;51.664;7.626;2022-12-24T14:02:25;6.60;;;3.22;;
2362;SDS011;64265;51.664;7.626;2022-12-24T14:04:53;10.05;;;4.22;;
2362;SDS011;64265;51.664;7.626;2022-12-24T14:07:26;9.52;;;3.38;;
2362;SDS011;64265;51.664;7.626;2022-12-24T14:09:52;8.80;;;3.35;;
2362;SDS011;64265;51.664;7.626;2022-12-24T14:12:30;6.07;;;3.13;;
2362;SDS011;64265;51.664;7.626;2022-12-24T14:18:29;7.43;;;2.97;;
2362;SDS011;64265;51.664;7.626;2022-12-24T14:20:59;4.78;;;3.00;;
2362;SDS011;64265;51.664;7.626;2022-12-24T14:23:29;5.38;;;2.83;;
2362;SDS011;64265;51.664;7.626;2022-12-24T14:26:01;7.20;;;2.85;;
2362;SDS011;64265;51.664;7.626;2022-12-24T14:28:31;5.93;;;3.25;;
2362;SDS011;64265;51.664;7.626;2022-12-24T14:31:02;5.53;;;2.53;;
2362;SDS011;64265;51.664;7.626;2022-12-24T14:33:31;5.50;;;3.00;;
2362;SDS011;64265;51.664;7.626;2022-12-24T14:36:00;4.45;;;2.63;;
2362;SDS011;64265;51.664;7.626;2022-12-24T14:38:27;7.00;;;2.83;;
2362;SDS011;64265;51.664;7.626;2022-12-24T14:40:57;3.70;;;2.35;;
2362;SDS011;64265;51.664;7.626;2022-12-24T14:43:34;5.70;;;2.93;;
2362;SDS011;64265;51.664;7.626;2022-12-24T14:46:14;5.30;;;2.43;;
2362;SDS011;64265;51.664;7.626;2022-12-24T14:48:51;4.87;;;1.87;;
2362;SDS011;64265;51.664;7.626;2022-12-24T14:51:23;3.83;;;2.30;;
2362;SDS011;64265;51.664;7.626;2022-12-24T14:54:03;3.92;;;2.28;;
2362;SDS011;64265;51.664;7.626;2022-12-24T14:56:38;4.10;;;2.00;;
2362;SDS011;64265;51.664;7.626;2022-12-24T14:59:12;7.00;;;3.33;;
2362;SDS011;64265;51.664;7.626;2022-12-24T15:01:40;6.10;;;2.78;;
2362;SDS011;64265;51.664;7.626;2022-12-24T15:04:14;8.25;;;2.40;;
2362;SDS011;64265;51.664;7.626;2022-12-24T15:06:43;6.55;;;2.42;;
2362;SDS011;64265;51.664;7.626;2022-12-24T15:09:13;7.13;;;2.50;;
2362;SDS011;64265;51.664;7.626;2022-12-24T15:11:44;6.97;;;2.60;;
2362;SDS011;64265;51.664;7.626;2022-12-24T15:14:12;4.20;;;2.00;;
2362;SDS011;64265;51.664;7.626;2022-12-24T15:16:39;3.95;;;2.20;;
2362;SDS011;64265;51.664;7.626;2022-12-24T15:19:07;3.78;;;1.98;;
2362;SDS011;64265;51.664;7.626;2022-12-24T15:21:47;5.40;;;2.58;;
2362;SDS011;64265;51.664;7.626;2022-12-24T15:24:25;2.88;;;1.83;;